createdAt,value
2023-03-05T09:23:28.725Z,30.89
2023-03-05T11:31:27.743Z,34.61
2023-03-05T11:32:27.664Z,34.45
2023-03-05T11:33:27.554Z,33.90
2023-03-05T11:34:27.534Z,34.25
2023-03-05T11:35:27.589Z,33.47
2023-03-05T11:36:27.518Z,32.60
2023-03-05T11:37:27.542Z,34.07
2023-03-05T11:38:27.520Z,33.18
2023-03-05T11:39:27.494Z,35.29
2023-03-05T11:40:27.479Z,34.14
2023-03-05T11:41:27.472Z,34.65
2023-03-05T11:42:27.464Z,33.69
2023-03-05T11:43:27.459Z,34.32
2023-03-05T11:44:27.455Z,32.80
2023-03-05T11:45:27.442Z,33.44
2023-03-05T11:46:27.588Z,33.87
2023-03-05T11:47:27.419Z,34.07
2023-03-05T11:48:27.410Z,33.27
2023-03-05T11:49:27.417Z,32.54
2023-03-05T11:50:27.394Z,33.97
2023-03-05T11:51:27.414Z,33.14
2023-03-05T11:52:27.373Z,34.99
2023-03-05T11:53:27.364Z,34.72
2023-03-05T11:54:27.357Z,33.93
2023-03-05T11:55:27.352Z,33.91
2023-03-05T11:56:27.354Z,33.76
2023-03-05T11:57:27.331Z,34.73
2023-03-05T11:58:27.323Z,33.34
2023-03-05T11:59:27.314Z,33.37
2023-03-05T12:00:27.307Z,33.59
2023-03-05T12:01:27.309Z,33.31
2023-03-05T12:02:27.297Z,31.26
2023-03-05T12:03:27.332Z,32.46
2023-03-05T12:04:27.270Z,33.28
2023-03-05T12:05:27.269Z,33.65
2023-03-05T12:06:27.255Z,34.59
2023-03-05T12:07:28.375Z,32.79
2023-03-05T12:08:27.233Z,33.74
2023-03-05T12:09:27.258Z,32.10
2023-03-05T12:10:27.239Z,32.55
2023-03-05T12:11:27.210Z,31.95
2023-03-05T12:12:27.206Z,31.16
2023-03-05T12:13:27.195Z,31.86
2023-03-05T12:14:27.190Z,33.23
2023-03-05T12:15:27.181Z,32.77
2023-03-05T12:16:27.257Z,33.35
2023-03-05T12:17:27.156Z,32.98
2023-03-05T12:18:27.156Z,30.96
2023-03-05T12:19:27.139Z,31.80
2023-03-05T12:20:27.187Z,30.91
2023-03-05T12:21:27.303Z,31.64
2023-03-05T12:22:27.130Z,31.36
2023-03-05T12:23:27.130Z,31.02
2023-03-05T12:24:28.498Z,32.16
2023-03-05T12:25:27.101Z,30.37
2023-03-05T12:26:27.097Z,30.19
2023-03-05T12:27:27.087Z,30.12
2023-03-05T12:28:27.076Z,30.53
2023-03-05T12:29:27.067Z,32.08
2023-03-05T12:30:27.055Z,31.97
2023-03-05T12:31:27.155Z,32.64
2023-03-05T12:32:27.039Z,31.02
2023-03-05T12:33:27.030Z,31.43
2023-03-05T12:34:27.030Z,32.36
2023-03-05T12:35:27.037Z,33.81
2023-03-05T12:36:27.007Z,31.69
2023-03-05T12:37:26.995Z,30.29
2023-03-05T12:38:27.339Z,32.32
2023-03-05T12:39:27.000Z,30.90
